sensor_id;sensor_type;location;lat;lon;timestamp;pressure;altitude;pressure_sealevel;temperature;humidity
54038;BME280;39954;48.844;9.726;2022-11-30T00:43:12;96273.28;;;3.70;100.00
54038;BME280;39954;48.844;9.726;2022-11-30T00:44:20;96269.78;;;3.73;100.00
54038;BME280;39954;48.844;9.726;2022-11-30T00:45:32;96278.34;;;3.73;100.00
54038;BME280;39954;48.844;9.726;2022-11-30T00:46:37;96268.91;;;3.72;100.00
54038;BME280;39954;48.844;9.726;2022-11-30T00:47:56;96267.34;;;3.67;100.00
54038;BME280;39954;48.844;9.726;2022-11-30T00:49:05;96271.63;;;3.68;100.00
54038;BME280;39954;48.844;9.726;2022-11-30T00:50:14;96275.03;;;3.68;100.00
54038;BME280;39954;48.844;9.726;2022-11-30T00:51:19;96276.72;;;3.69;100.00
54038;BME280;39954;48.844;9.726;2022-11-30T00:52:33;96281.91;;;3.68;100.00
54038;BME280;39954;48.844;9.726;2022-11-30T00:53:36;96282.75;;;3.68;100.00
54038;BME280;39954;48.844;9.726;2022-11-30T00:54:42;96282.78;;;3.67;100.00
54038;BME280;39954;48.844;9.726;2022-11-30T00:55:45;96277.69;;;3.65;100.00
54038;BME280;39954;48.844;9.726;2022-11-30T00:56:54;96276.78;;;3.66;100.00
54038;BME280;39954;48.844;9.726;2022-11-30T00:57:57;96275.13;;;3.65;100.00
54038;BME280;39954;48.844;9.726;2022-11-30T00:59:08;96277.72;;;3.64;100.00
54038;BME280;39954;48.844;9.726;2022-11-30T01:00:19;96278.59;;;3.64;100.00
54038;BME280;39954;48.844;9.726;2022-11-30T01:01:26;96276.84;;;3.65;100.00
54038;BME280;39954;48.844;9.726;2022-11-30T01:02:32;96281.19;;;3.63;100.00
54038;BME280;39954;48.844;9.726;2022-11-30T01:03:42;96283.72;;;3.64;100.00
54038;BME280;39954;48.844;9.726;2022-11-30T01:04:52;96273.44;;;3.64;100.00
54038;BME280;39954;48.844;9.726;2022-11-30T01:06:14;96280.28;;;3.64;100.00
54038;BME280;39954;48.844;9.726;2022-11-30T01:07:20;96280.34;;;3.62;100.00
54038;BME280;39954;48.844;9.726;2022-11-30T01:08:36;96276.06;;;3.61;100.00
54038;BME280;39954;48.844;9.726;2022-11-30T01:09:42;96282.94;;;3.61;100.00
54038;BME280;39954;48.844;9.726;2022-11-30T01:10:48;96282.09;;;3.60;100.00
54038;BME280;39954;48.844;9.726;2022-11-30T01:11:55;96278.63;;;3.63;100.00
54038;BME280;39954;48.844;9.726;2022-11-30T01:13:07;96282.94;;;3.61;100.00
54038;BME280;39954;48.844;9.726;2022-11-30T01:14:13;96280.34;;;3.62;100.00
54038;BME280;39954;48.844;9.726;2022-11-30T01:15:37;96287.31;;;3.58;100.00
54038;BME280;39954;48.844;9.726;2022-11-30T01:16:42;96284.66;;;3.62;100.00
54038;BME280;39954;48.844;9.726;2022-11-30T01:17:54;96284.69;;;3.60;100.00
54038;BME280;39954;48.844;9.726;2022-11-30T01:19:00;96283.00;;;3.59;100.00
54038;BME280;39954;48.844;9.726;2022-11-30T01:20:17;96279.53;;;3.60;100.00
54038;BME280;39954;48.844;9.726;2022-11-30T01:21:27;96284.72;;;3.58;100.00
54038;BME280;39954;48.844;9.726;2022-11-30T01:22:33;96288.88;;;3.64;100.00
54038;BME280;39954;48.844;9.726;2022-11-30T01:23:37;96292.38;;;3.60;100.00
54038;BME280;39954;48.844;9.726;2022-11-30T01:24:48;96288.16;;;3.57;100.00
54038;BME280;39954;48.844;9.726;2022-11-30T01:26:00;96289.91;;;3.57;100.00
54038;BME280;39954;48.844;9.726;2022-11-30T01:27:11;96285.56;;;3.59;100.00
54038;BME280;39954;48.844;9.726;2022-11-30T01:28:14;96288.16;;;3.57;100.00
54038;BME280;39954;48.844;9.726;2022-11-30T01:29:27;96289.00;;;3.58;100.00
54038;BME280;39954;48.844;9.726;2022-11-30T01:30:34;96284.69;;;3.60;100.00
54038;BME280;39954;48.844;9.726;2022-11-30T01:31:37;96294.13;;;3.59;100.00
54038;BME280;39954;48.844;9.726;2022-11-30T01:32:43;96294.06;;;3.61;100.00
54038;BME280;39954;48.844;9.726;2022-11-30T01:33:50;96289.81;;;3.60;100.00
54038;BME280;39954;48.844;9.726;2022-11-30T01:35:03;96296.63;;;3.61;100.00
54038;BME280;39954;48.844;9.726;2022-11-30T01:36:08;96289.81;;;3.60;100.00
54038;BME280;39954;48.844;9.726;2022-11-30T01:37:17;96286.34;;;3.61;100.00
54038;BME280;39954;48.844;9.726;2022-11-30T01:38:20;96293.22;;;3.61;100.00
54038;BME280;39954;48.844;9.726;2022-11-30T01:39:27;96288.97;;;3.59;100.00
54038;BME280;39954;48.844;9.726;2022-11-30T01:40:48;96292.50;;;3.55;100.00
54038;BME280;39954;48.844;9.726;2022-11-30T01:41:52;96288.34;;;3.51;100.00
54038;BME280;39954;48.844;9.726;2022-11-30T01:43:11;96289.91;;;3.57;100.00
54038;BME280;39954;48.844;9.726;2022-11-30T01:46:05;96289.16;;;3.52;100.00
54038;BME280;39954;48.844;9.726;2022-11-30T01:47:10;96290.94;;;3.50;100.00
54038;BME280;39954;48.844;9.726;2022-11-30T01:48:19;96293.50;;;3.50;100.00
54038;BME280;39954;48.844;9.726;2022-11-30T01:49:35;96292.56;;;3.52;100.00
54038;BME280;39954;48.844;9.726;2022-11-30T01:50:43;96297.84;;;3.48;100.00
54038;BME280;39954;48.844;9.726;2022-11-30T01:51:56;96300.38;;;3.49;100.00
54038;BME280;39954;48.844;9.726;2022-11-30T01:53:04;96295.16;;;3.52;100.00
54038;BME280;39954;48.844;9.726;2022-11-30T01:54:18;96291.78;;;3.50;100.00
54038;BME280;39954;48.844;9.726;2022-11-30T01:55:29;96290.91;;;3.51;100.00
54038;BME280;39954;48.844;9.726;2022-11-30T01:56:38;96301.19;;;3.50;100.00
54038;BME280;39954;48.844;9.726;2022-11-30T01:57:45;96296.97;;;3.49;100.00
54038;BME280;39954;48.844;9.726;2022-11-30T01:59:06;96300.34;;;3.51;100.00
54038;BME280;39954;48.844;9.726;2022-11-30T02:00:12;96304.66;;;3.49;100.00
54038;BME280;39954;48.844;9.726;2022-11-30T02:01:21;96314.06;;;3.50;100.00
54038;BME280;39954;48.844;9.726;2022-11-30T02:02:39;96308.91;;;3.50;100.00
54038;BME280;39954;48.844;9.726;2022-11-30T02:04:00;96300.28;;;3.52;100.00
54038;BME280;39954;48.844;9.726;2022-11-30T02:05:05;96304.59;;;3.52;100.00
54038;BME280;39954;48.844;9.726;2022-11-30T02:06:16;96308.22;;;3.45;100.00
54038;BME280;39954;48.844;9.726;2022-11-30T02:07:20;96308.25;;;3.42;100.00
54038;BME280;39954;48.844;9.726;2022-11-30T02:08:34;96304.81;;;3.43;100.00
54038;BME280;39954;48.844;9.726;2022-11-30T02:09:41;96305.66;;;3.45;100.00
54038;BME280;39954;48.844;9.726;2022-11-30T02:11:02;96304.75;;;3.46;100.00
54038;BME280;39954;48.844;9.726;2022-11-30T02:12:07;96306.44;;;3.47;100.00
54038;BME280;39954;48.844;9.726;2022-11-30T02:13:43;96303.00;;;3.48;100.00
54038;BME280;39954;48.844;9.726;2022-11-30T02:14:55;96303.00;;;3.48;100.00
54038;BME280;39954;48.844;9.726;2022-11-30T02:16:06;96309.81;;;3.49;100.00
54038;BME280;39954;48.844;9.726;2022-11-30T02:17:24;96312.38;;;3.49;100.00
54038;BME280;39954;48.844;9.726;2022-11-30T02:18:36;96313.28;;;3.48;100.00
54038;BME280;39954;48.844;9.726;2022-11-30T02:20:25;96313.28;;;3.48;100.00
54038;BME280;39954;48.844;9.726;2022-11-30T02:21:40;96308.06;;;3.51;100.00
54038;BME280;39954;48.844;9.726;2022-11-30T02:23:04;96315.75;;;3.51;100.00
54038;BME280;39954;48.844;9.726;2022-11-30T02:24:33;96313.09;;;3.54;100.00
54038;BME280;39954;48.844;9.726;2022-11-30T02:25:49;96310.63;;;3.51;100.00
54038;BME280;39954;48.844;9.726;2022-11-30T02:27:16;96309.72;;;3.52;100.00
54038;BME280;39954;48.844;9.726;2022-11-30T02:28:50;96310.56;;;3.52;100.00
54038;BME280;39954;48.844;9.726;2022-11-30T02:30:12;96302.06;;;3.50;100.00
54038;BME280;39954;48.844;9.726;2022-11-30T02:31:22;96313.19;;;3.51;100.00
54038;BME280;39954;48.844;9.726;2022-11-30T02:32:31;96312.34;;;3.50;100.00
54038;BME280;39954;48.844;9.726;2022-11-30T02:33:49;96308.88;;;3.53;100.00
54038;BME280;39954;48.844;9.726;2022-11-30T02:34:54;96305.34;;;3.55;100.00
54038;BME280;39954;48.844;9.726;2022-11-30T02:36:11;96306.22;;;3.56;100.00
54038;BME280;39954;48.844;9.726;2022-11-30T02:37:15;96307.00;;;3.58;100.00
54038;BME280;39954;48.844;9.726;2022-11-30T02:38:26;96301.06;;;3.56;100.00
54038;BME280;39954;48.844;9.726;2022-11-30T02:39:31;96305.28;;;3.58;100.00
54038;BME280;39954;48.844;9.726;2022-11-30T02:40:37;96308.72;;;3.57;100.00
54038;BME280;39954;48.844;9.726;2022-11-30T02:41:46;96308.72;;;3.57;100.00
54038;BME280;39954;48.844;9.726;2022-11-30T02:42:52;96300.09;;;3.60;100.00
54038;BME280;39954;48.844;9.726;2022-11-30T02:44:02;96299.09;;;3.66;100.00
54038;BME280;39954;48.844;9.726;2022-11-30T02:45:09;96305.97;;;3.65;100.00
54038;BME280;39954;48.844;9.726;2022-11-30T02:46:17;96301.75;;;3.63;100.00
54038;BME280;39954;48.844;9.726;2022-11-30T02:47:40;96304.34;;;3.61;100.00
54038;BME280;39954;48.844;9.726;2022-11-30T02:48:49;96306.06;;;3.62;100.00
54038;BME280;39954;48.844;9.726;2022-11-30T02:50:14;96304.28;;;3.64;100.00
54038;BME280;39954;48.844;9.726;2022-11-30T02:51:24;96299.94;;;3.66;100.00
54038;BME280;39954;48.844;9.726;2022-11-30T02:52:33;96304.13;;;3.70;100.00
54038;BME280;39954;48.844;9.726;2022-11-30T02:53:40;96306.88;;;3.63;100.00
54038;BME280;39954;48.844;9.726;2022-11-30T02:54:43;96304.28;;;3.64;100.00
54038;BME280;39954;48.844;9.726;2022-11-30T02:55:55;96305.25;;;3.60;100.00
54038;BME280;39954;48.844;9.726;2022-11-30T02:57:03;96305.22;;;3.62;100.00
54038;BME280;39954;48.844;9.726;2022-11-30T02:58:11;96305.25;;;3.60;100.00
54038;BME280;39954;48.844;9.726;2022-11-30T02:59:19;96306.88;;;3.63;100.00
54038;BME280;39954;48.844;9.726;2022-11-30T03:00:27;96302.66;;;3.60;100.00
54038;BME280;39954;48.844;9.726;2022-11-30T03:01:31;96302.72;;;3.58;100.00
54038;BME280;39954;48.844;9.726;2022-11-30T03:02:39;96305.28;;;3.58;100.00
54038;BME280;39954;48.844;9.726;2022-11-30T03:03:43;96303.66;;;3.54;100.00
54038;BME280;39954;48.844;9.726;2022-11-30T03:04:51;96304.47;;;3.56;100.00
54038;BME280;39954;48.844;9.726;2022-11-30T03:06:07;96302.59;;;3.63;100.00
54038;BME280;39954;48.844;9.726;2022-11-30T03:07:16;96301.94;;;3.55;100.00
54038;BME280;39954;48.844;9.726;2022-11-30T03:08:19;96307.97;;;3.54;100.00
54038;BME280;39954;48.844;9.726;2022-11-30T03:09:38;96300.34;;;3.51;100.00
54038;BME280;39954;48.844;9.726;2022-11-30T03:10:43;96303.81;;;3.48;100.00
54038;BME280;39954;48.844;9.726;2022-11-30T03:11:49;96307.25;;;3.49;100.00
54038;BME280;39954;48.844;9.726;2022-11-30T03:12:59;96314.88;;;3.52;100.00
54038;BME280;39954;48.844;9.726;2022-11-30T03:14:05;96303.72;;;3.53;100.00
54038;BME280;39954;48.844;9.726;2022-11-30T03:15:13;96314.09;;;3.48;100.00
54038;BME280;39954;48.844;9.726;2022-11-30T03:16:26;96309.06;;;3.45;100.00
54038;BME280;39954;48.844;9.726;2022-11-30T03:17:29;96307.13;;;3.53;100.00
54038;BME280;39954;48.844;9.726;2022-11-30T03:18:35;96310.56;;;3.52;100.00
54038;BME280;39954;48.844;9.726;2022-11-30T03:19:38;96310.66;;;3.49;100.00
54038;BME280;39954;48.844;9.726;2022-11-30T03:20:44;96302.91;;;3.51;100.00
54038;BME280;39954;48.844;9.726;2022-11-30T03:21:47;96308.06;;;3.51;100.00
54038;BME280;39954;48.844;9.726;2022-11-30T03:23:00;96315.78;;;3.49;100.00
54038;BME280;39954;48.844;9.726;2022-11-30T03:24:04;96312.34;;;3.50;100.00
54038;BME280;39954;48.844;9.726;2022-11-30T03:25:10;96305.59;;;3.46;100.00
54038;BME280;39954;48.844;9.726;2022-11-30T03:26:13;96311.47;;;3.51;100.00
54038;BME280;39954;48.844;9.726;2022-11-30T03:27:19;96316.69;;;3.47;100.00
54038;BME280;39954;48.844;9.726;2022-11-30T03:28:22;96312.53;;;3.43;100.00
54038;BME280;39954;48.844;9.726;2022-11-30T03:29:34;96319.44;;;3.41;100.00
54038;BME280;39954;48.844;9.726;2022-11-30T03:30:40;96316.88;;;3.41;100.00
54038;BME280;39954;48.844;9.726;2022-11-30T03:31:46;96320.25;;;3.43;100.00
54038;BME280;39954;48.844;9.726;2022-11-30T03:32:53;96316.88;;;3.41;100.00
54038;BME280;39954;48.844;9.726;2022-11-30T03:34:01;96326.41;;;3.35;100.00
54038;BME280;39954;48.844;9.726;2022-11-30T03:35:05;96318.78;;;3.32;100.00
54038;BME280;39954;48.844;9.726;2022-11-30T03:36:11;96315.25;;;3.36;100.00
54038;BME280;39954;48.844;9.726;2022-11-30T03:37:19;96321.16;;;3.40;100.00
54038;BME280;39954;48.844;9.726;2022-11-30T03:38:27;96319.50;;;3.38;100.00
54038;BME280;39954;48.844;9.726;2022-11-30T03:39:30;96318.69;;;3.35;100.00
54038;BME280;39954;48.844;9.726;2022-11-30T03:40:36;96323.00;;;3.35;100.00
54038;BME280;39954;48.844;9.726;2022-11-30T03:41:41;96323.00;;;3.35;100.00
54038;BME280;39954;48.844;9.726;2022-11-30T03:42:47;96317.94;;;3.32;100.00
54038;BME280;39954;48.844;9.726;2022-11-30T03:43:51;96317.09;;;3.31;100.00
54038;BME280;39954;48.844;9.726;2022-11-30T03:45:09;96315.47;;;3.27;100.00
54038;BME280;39954;48.844;9.726;2022-11-30T03:46:15;96317.25;;;3.25;100.00
54038;BME280;39954;48.844;9.726;2022-11-30T03:47:21;96324.06;;;3.26;100.00
54038;BME280;39954;48.844;9.726;2022-11-30T03:48:29;96317.25;;;3.25;100.00
54038;BME280;39954;48.844;9.726;2022-11-30T03:49:38;96321.69;;;3.19;100.00
54038;BME280;39954;48.844;9.726;2022-11-30T03:50:42;96319.09;;;3.20;100.00
54038;BME280;39954;48.844;9.726;2022-11-30T03:51:50;96319.09;;;3.20;100.00
54038;BME280;39954;48.844;9.726;2022-11-30T03:52:55;96317.44;;;3.16;100.00
54038;BME280;39954;48.844;9.726;2022-11-30T03:54:06;96314.09;;;3.14;100.00
54038;BME280;39954;48.844;9.726;2022-11-30T03:55:10;96306.41;;;3.12;100.00
54038;BME280;39954;48.844;9.726;2022-11-30T03:56:18;96315.69;;;3.18;100.00
54038;BME280;39954;48.844;9.726;2022-11-30T03:57:21;96320.91;;;3.15;100.00
54038;BME280;39954;48.844;9.726;2022-11-30T03:58:28;96321.88;;;3.11;100.00
54038;BME280;39954;48.844;9.726;2022-11-30T03:59:31;96318.50;;;3.09;100.00
54038;BME280;39954;48.844;9.726;2022-11-30T04:00:37;96318.53;;;3.07;100.00
54038;BME280;39954;48.844;9.726;2022-11-30T04:01:43;96318.53;;;3.07;100.00
54038;BME280;39954;48.844;9.726;2022-11-30T04:02:50;96317.75;;;3.04;100.00
54038;BME280;39954;48.844;9.726;2022-11-30T04:03:53;96315.16;;;3.05;100.00
54038;BME280;39954;48.844;9.726;2022-11-30T04:05:02;96322.88;;;3.05;100.00
54038;BME280;39954;48.844;9.726;2022-11-30T04:06:06;96322.06;;;3.03;100.00
54038;BME280;39954;48.844;9.726;2022-11-30T04:07:12;96321.22;;;3.03;100.00
54038;BME280;39954;48.844;9.726;2022-11-30T04:08:18;96314.38;;;3.02;100.00
54038;BME280;39954;48.844;9.726;2022-11-30T04:09:36;96315.84;;;3.12;100.00
54038;BME280;39954;48.844;9.726;2022-11-30T04:10:46;96319.16;;;3.17;100.00
54038;BME280;39954;48.844;9.726;2022-11-30T04:11:49;96318.50;;;3.09;100.00
54038;BME280;39954;48.844;9.726;2022-11-30T04:13:00;96319.44;;;3.05;100.00
54038;BME280;39954;48.844;9.726;2022-11-30T04:14:04;96322.06;;;3.03;100.00
54038;BME280;39954;48.844;9.726;2022-11-30T04:15:10;96324.63;;;3.02;100.00
54038;BME280;39954;48.844;9.726;2022-11-30T04:16:15;96322.97;;;3.01;100.00
54038;BME280;39954;48.844;9.726;2022-11-30T04:17:29;96322.06;;;3.02;100.00
54038;BME280;39954;48.844;9.726;2022-11-30T04:18:34;96319.59;;;2.99;100.00
54038;BME280;39954;48.844;9.726;2022-11-30T04:19:40;96323.03;;;2.98;100.00
54038;BME280;39954;48.844;9.726;2022-11-30T04:20:43;96322.97;;;3.01;100.00
54038;BME280;39954;48.844;9.726;2022-11-30T04:21:49;96332.41;;;2.99;100.00
54038;BME280;39954;48.844;9.726;2022-11-30T04:22:55;96323.13;;;2.95;100.00
54038;BME280;39954;48.844;9.726;2022-11-30T04:24:05;96334.25;;;2.94;100.00
54038;BME280;39954;48.844;9.726;2022-11-30T04:25:11;96327.50;;;2.89;100.00
54038;BME280;39954;48.844;9.726;2022-11-30T04:26:17;96325.00;;;2.86;100.00
54038;BME280;39954;48.844;9.726;2022-11-30T04:27:20;96327.53;;;2.88;100.00
54038;BME280;39954;48.844;9.726;2022-11-30T04:28:40;96322.44;;;2.86;100.00
54038;BME280;39954;48.844;9.726;2022-11-30T04:29:43;96322.50;;;2.83;100.00
54038;BME280;39954;48.844;9.726;2022-11-30T04:30:49;96326.84;;;2.81;100.00
54038;BME280;39954;48.844;9.726;2022-11-30T04:31:59;96325.19;;;2.77;100.00
54038;BME280;39954;48.844;9.726;2022-11-30T04:33:11;96330.41;;;2.74;100.00
54038;BME280;39954;48.844;9.726;2022-11-30T04:34:14;96325.25;;;2.74;100.00
54038;BME280;39954;48.844;9.726;2022-11-30T04:35:31;96334.75;;;2.72;100.00
54038;BME280;39954;48.844;9.726;2022-11-30T04:36:34;96332.19;;;2.71;100.00
54038;BME280;39954;48.844;9.726;2022-11-30T04:37:45;96336.50;;;2.68;100.00
54038;BME280;39954;48.844;9.726;2022-11-30T04:38:48;96328.03;;;2.66;100.00
54038;BME280;39954;48.844;9.726;2022-11-30T04:39:53;96328.88;;;2.65;100.00
54038;BME280;39954;48.844;9.726;2022-11-30T04:41:06;96338.28;;;2.66;100.00
54038;BME280;39954;48.844;9.726;2022-11-30T04:42:12;96336.63;;;2.64;100.00
54038;BME280;39954;48.844;9.726;2022-11-30T04:43:19;96334.91;;;2.63;100.00
54038;BME280;39954;48.844;9.726;2022-11-30T04:44:31;96330.66;;;2.63;100.00
54038;BME280;39954;48.844;9.726;2022-11-30T04:45:35;96337.50;;;2.63;100.00
54038;BME280;39954;48.844;9.726;2022-11-30T04:46:42;96342.63;;;2.63;100.00
54038;BME280;39954;48.844;9.726;2022-11-30T04:47:45;96343.53;;;2.60;100.00
54038;BME280;39954;48.844;9.726;2022-11-30T04:48:56;96341.84;;;2.61;100.00
54038;BME280;39954;48.844;9.726;2022-11-30T04:50:05;96342.69;;;2.60;100.00
54038;BME280;39954;48.844;9.726;2022-11-30T04:51:13;96346.97;;;2.61;100.00
54038;BME280;39954;48.844;9.726;2022-11-30T04:52:19;96335.03;;;2.58;100.00
54038;BME280;39954;48.844;9.726;2022-11-30T04:53:25;96346.13;;;2.59;100.00
54038;BME280;39954;48.844;9.726;2022-11-30T04:54:30;96344.47;;;2.58;100.00
54038;BME280;39954;48.844;9.726;2022-11-30T04:55:36;96345.31;;;2.58;100.00
54038;BME280;39954;48.844;9.726;2022-11-30T04:56:39;96353.78;;;2.62;100.00
54038;BME280;39954;48.844;9.726;2022-11-30T04:57:44;96340.06;;;2.63;100.00
54038;BME280;39954;48.844;9.726;2022-11-30T04:58:46;96350.31;;;2.63;100.00
54038;BME280;39954;48.844;9.726;2022-11-30T04:59:51;96345.19;;;2.63;100.00
54038;BME280;39954;48.844;9.726;2022-11-30T05:00:53;96345.22;;;2.61;100.00
54038;BME280;39954;48.844;9.726;2022-11-30T05:01:59;96350.38;;;2.61;100.00
54038;BME280;39954;48.844;9.726;2022-11-30T05:03:05;96347.75;;;2.63;100.00
54038;BME280;39954;48.844;9.726;2022-11-30T05:04:13;96347.81;;;2.61;100.00
54038;BME280;39954;48.844;9.726;2022-11-30T05:05:18;96352.88;;;2.63;100.00
54038;BME280;39954;48.844;9.726;2022-11-30T05:06:23;96353.84;;;2.59;100.00
54038;BME280;39954;48.844;9.726;2022-11-30T05:07:38;96352.13;;;2.59;100.00
54038;BME280;39954;48.844;9.726;2022-11-30T05:08:43;96355.50;;;2.61;100.00
54038;BME280;39954;48.844;9.726;2022-11-30T05:09:45;96357.22;;;2.61;100.00
54038;BME280;39954;48.844;9.726;2022-11-30T05:10:51;96349.53;;;2.61;100.00
54038;BME280;39954;48.844;9.726;2022-11-30T05:11:54;96356.25;;;2.66;100.00
54038;BME280;39954;48.844;9.726;2022-11-30T05:12:59;96360.50;;;2.66;100.00
54038;BME280;39954;48.844;9.726;2022-11-30T05:14:02;96360.34;;;2.74;100.00
54038;BME280;39954;48.844;9.726;2022-11-30T05:15:08;96357.88;;;2.71;100.00
54038;BME280;39954;48.844;9.726;2022-11-30T05:16:10;96359.53;;;2.73;100.00
54038;BME280;39954;48.844;9.726;2022-11-30T05:17:15;96363.00;;;2.71;100.00
54038;BME280;39954;48.844;9.726;2022-11-30T05:18:17;96362.97;;;2.72;100.00
54038;BME280;39954;48.844;9.726;2022-11-30T05:19:25;96353.63;;;2.69;100.00
54038;BME280;39954;48.844;9.726;2022-11-30T05:20:30;96354.41;;;2.72;100.00
54038;BME280;39954;48.844;9.726;2022-11-30T05:21:35;96349.47;;;2.64;100.00
54038;BME280;39954;48.844;9.726;2022-11-30T05:22:44;96354.69;;;2.59;100.00
54038;BME280;39954;48.844;9.726;2022-11-30T05:23:49;96359.00;;;2.57;100.00
54038;BME280;39954;48.844;9.726;2022-11-30T05:24:53;96345.19;;;2.63;100.00
54038;BME280;39954;48.844;9.726;2022-11-30T05:26:03;96354.72;;;2.58;100.00
54038;BME280;39954;48.844;9.726;2022-11-30T05:27:06;96356.47;;;2.56;100.00
54038;BME280;39954;48.844;9.726;2022-11-30T05:28:18;96351.34;;;2.56;100.00
54038;BME280;39954;48.844;9.726;2022-11-30T05:29:20;96353.00;;;2.58;100.00
54038;BME280;39954;48.844;9.726;2022-11-30T05:30:29;96352.19;;;2.56;100.00
54038;BME280;39954;48.844;9.726;2022-11-30T05:31:32;96351.44;;;2.51;100.00
54038;BME280;39954;48.844;9.726;2022-11-30T05:32:37;96352.34;;;2.49;100.00
54038;BME280;39954;48.844;9.726;2022-11-30T05:33:39;96343.84;;;2.46;100.00
54038;BME280;39954;48.844;9.726;2022-11-30T05:34:46;96349.00;;;2.45;100.00
54038;BME280;39954;48.844;9.726;2022-11-30T05:35:52;96349.00;;;2.43;100.00
54038;BME280;39954;48.844;9.726;2022-11-30T05:36:58;96345.69;;;2.40;100.00
54038;BME280;39954;48.844;9.726;2022-11-30T05:38:01;96354.19;;;2.42;100.00
54038;BME280;39954;48.844;9.726;2022-11-30T05:39:06;96355.13;;;2.38;100.00
54038;BME280;39954;48.844;9.726;2022-11-30T05:40:09;96353.41;;;2.38;100.00
54038;BME280;39954;48.844;9.726;2022-11-30T05:41:14;96355.16;;;2.36;100.00
54038;BME280;39954;48.844;9.726;2022-11-30T05:42:19;96356.91;;;2.34;100.00
54038;BME280;39954;48.844;9.726;2022-11-30T05:43:24;96356.09;;;2.32;100.00
54038;BME280;39954;48.844;9.726;2022-11-30T05:44:41;96354.41;;;2.31;100.00
54038;BME280;39954;48.844;9.726;2022-11-30T05:45:47;96358.75;;;2.28;100.00
54038;BME280;39954;48.844;9.726;2022-11-30T05:46:49;96361.34;;;2.26;100.00
54038;BME280;39954;48.844;9.726;2022-11-30T05:47:54;96357.09;;;2.25;100.00
54038;BME280;39954;48.844;9.726;2022-11-30T05:49:03;96359.69;;;2.23;100.00
54038;BME280;39954;48.844;9.726;2022-11-30T05:50:11;96357.94;;;2.24;100.00
54038;BME280;39954;48.844;9.726;2022-11-30T05:51:15;96352.03;;;2.22;100.00
54038;BME280;39954;48.844;9.726;2022-11-30T05:52:20;96352.88;;;2.21;100.00
54038;BME280;39954;48.844;9.726;2022-11-30T05:53:22;96358.91;;;2.20;100.00
54038;BME280;39954;48.844;9.726;2022-11-30T05:54:27;96358.81;;;2.24;100.00
54038;BME280;39954;48.844;9.726;2022-11-30T05:55:29;96353.75;;;2.21;100.00
54038;BME280;39954;48.844;9.726;2022-11-30T05:56:34;96358.06;;;2.18;100.00
54038;BME280;39954;48.844;9.726;2022-11-30T05:57:37;96358.97;;;2.17;100.00
54038;BME280;39954;48.844;9.726;2022-11-30T05:58:42;96360.69;;;2.15;100.00
54038;BME280;39954;48.844;9.726;2022-11-30T05:59:45;96365.00;;;2.13;100.00
54038;BME280;39954;48.844;9.726;2022-11-30T06:00:49;96371.88;;;2.12;100.00
54038;BME280;39954;48.844;9.726;2022-11-30T06:01:51;96374.41;;;2.14;100.00
54038;BME280;39954;48.844;9.726;2022-11-30T06:02:57;96359.09;;;2.11;100.00
54038;BME280;39954;48.844;9.726;2022-11-30T06:03:59;96364.22;;;2.11;100.00
54038;BME280;39954;48.844;9.726;2022-11-30T06:05:12;96364.22;;;2.11;100.00
54038;BME280;39954;48.844;9.726;2022-11-30T06:06:14;96368.50;;;2.10;100.00
54038;BME280;39954;48.844;9.726;2022-11-30T06:07:19;96367.63;;;2.10;100.00
54038;BME280;39954;48.844;9.726;2022-11-30T06:08:22;96365.91;;;2.12;100.00
54038;BME280;39954;48.844;9.726;2022-11-30T06:09:27;96363.38;;;2.10;100.00
54038;BME280;39954;48.844;9.726;2022-11-30T06:10:29;96368.53;;;2.09;100.00
54038;BME280;39954;48.844;9.726;2022-11-30T06:11:34;96370.25;;;2.08;100.00
54038;BME280;39954;48.844;9.726;2022-11-30T06:12:36;96366.84;;;2.06;100.00
54038;BME280;39954;48.844;9.726;2022-11-30T06:13:41;96368.53;;;2.07;100.00
54038;BME280;39954;48.844;9.726;2022-11-30T06:14:44;96366.06;;;2.03;100.00
54038;BME280;39954;48.844;9.726;2022-11-30T06:15:49;96363.63;;;1.96;100.00
54038;BME280;39954;48.844;9.726;2022-11-30T06:16:52;96365.38;;;1.93;100.00
54038;BME280;39954;48.844;9.726;2022-11-30T06:17:56;96371.34;;;1.95;100.00
54038;BME280;39954;48.844;9.726;2022-11-30T06:18:59;96368.91;;;1.89;100.00
54038;BME280;39954;48.844;9.726;2022-11-30T06:20:04;96369.78;;;1.88;100.00
54038;BME280;39954;48.844;9.726;2022-11-30T06:21:10;96366.47;;;1.81;100.00
54038;BME280;39954;48.844;9.726;2022-11-30T06:22:21;96371.72;;;1.73;100.00
54038;BME280;39954;48.844;9.726;2022-11-30T06:23:24;96374.34;;;1.70;100.00
54038;BME280;39954;48.844;9.726;2022-11-30T06:24:28;96366.63;;;1.72;100.00
54038;BME280;39954;48.844;9.726;2022-11-30T06:25:31;96367.53;;;1.69;100.00
54038;BME280;39954;48.844;9.726;2022-11-30T06:26:36;96367.59;;;1.66;100.00
54038;BME280;39954;48.844;9.726;2022-11-30T06:27:38;96370.16;;;1.65;100.00
54038;BME280;39954;48.844;9.726;2022-11-30T06:28:44;96375.31;;;1.63;100.00
54038;BME280;39954;48.844;9.726;2022-11-30T06:29:49;96365.91;;;1.64;100.00
54038;BME280;39954;48.844;9.726;2022-11-30T06:30:57;96369.31;;;1.64;100.00
54038;BME280;39954;48.844;9.726;2022-11-30T06:32:00;96371.81;;;1.69;100.00
54038;BME280;39954;48.844;9.726;2022-11-30T06:33:05;96374.31;;;1.72;100.00
54038;BME280;39954;48.844;9.726;2022-11-30T06:34:07;96375.16;;;1.74;100.00
54038;BME280;39954;48.844;9.726;2022-11-30T06:35:12;96366.56;;;1.75;100.00
54038;BME280;39954;48.844;9.726;2022-11-30T06:36:22;96367.47;;;1.71;100.00
54038;BME280;39954;48.844;9.726;2022-11-30T06:37:34;96364.97;;;1.68;100.00
54038;BME280;39954;48.844;9.726;2022-11-30T06:38:37;96356.50;;;1.66;100.00
54038;BME280;39954;48.844;9.726;2022-11-30T06:39:42;96365.94;;;1.62;100.00
54038;BME280;39954;48.844;9.726;2022-11-30T06:41:06;96364.25;;;1.61;100.00
54038;BME280;39954;48.844;9.726;2022-11-30T06:42:11;96373.72;;;1.58;100.00
54038;BME280;39954;48.844;9.726;2022-11-30T06:43:13;96368.66;;;1.54;100.00
54038;BME280;39954;48.844;9.726;2022-11-30T06:44:18;96370.38;;;1.52;100.00